Quick Links (Output Below):   Max & Min Temps   /   Climate Reports   /   Zone Forecasts
River Forecasts   /   Forestry Forecasts   /   Aviation Forecasts   /   Radars   /   Features

Terminal Aerodrome Forecast (Mountain Home)

Pick a Site:
Arkadelphia | El Dorado | Fayetteville | Fort Smith | Harrison | Highfill | Hot Springs | Jonesboro
Little Rock | Monticello | Mountain Home | Pine Bluff | Texarkana
 Forecast 

KBPK 252339Z 2600/2624 17004KT P6SM OVC150
     FM260200 00000KT P6SM BKN250
     FM261400 14003KT P6SM VCSH SCT100 OVC250
      TEMPO 2620/2624 5SM TSRA BR OVC035CB=


 Latest METARs (Observations) 
How to Decode METARs
04Z KBPK 260353Z AUTO 00000KT 10SM CLR 24/24 A3009 RMK AO2 SLP179
         T02440239
         
03Z KBPK 260253Z AUTO 00000KT 10SM CLR 24/24 A3009 RMK AO2 SLP177
         T02440239 51017
         
02Z KBPK 260153Z AUTO 00000KT 10SM CLR 26/24 A3008 RMK AO2 SLP176
         T02560239
         
01Z KBPK 260053Z AUTO 18003KT 10SM CLR 27/24 A3005 RMK AO2 SLP166
         T02670239
         
00Z KBPK 252353Z AUTO 17004KT 10SM CLR 27/24 A3003 RMK AO2 SLP160
         T02720239 10328 20272 56011
         
***** Today's Observations (Above) *****


23Z KBPK 252253Z AUTO 17004KT 10SM CLR 29/24 A3005 RMK AO2 SLP164
         T02890239
         
22Z KBPK 252153Z AUTO 00000KT 10SM CLR 30/24 A3005 RMK AO2 LTG DSNT S
         SLP164 T03000244
         
21Z KBPK 252053Z AUTO 26003KT 10SM CLR 32/22 A3007 RMK AO2 SLP170
         T03170217 56019
         
20Z KBPK 251953Z AUTO VRB03KT 10SM CLR 32/23 A3008 RMK AO2 SLP174
         T03220228
         
19Z KBPK 251853Z AUTO 00000KT 10SM CLR 32/23 A3010 RMK AO2 SLP182
         T03170228
         
***** Yesterday's Observations (Above) *****


Back to Main Page
http://www.srh.noaa.gov/lzk/qfcst.php

USA.gov is the U.S. government's official web portal to all federal, state and local government web resources and services.